createdAt,value
2018-06-24T00:00:55.628Z,79.70
2018-06-24T00:05:15.657Z,80.00
2018-06-24T00:09:19.198Z,80.00
2018-06-24T00:13:23.576Z,80.60
2018-06-24T00:17:27.114Z,80.70
2018-06-24T00:21:31.838Z,79.90
2018-06-24T00:25:40.954Z,80.00
2018-06-24T00:29:45.343Z,79.70
2018-06-24T00:33:52.159Z,80.30
2018-06-24T00:37:56.052Z,80.20
2018-06-24T00:46:20.891Z,80.10
2018-06-24T00:50:25.774Z,79.90
2018-06-24T00:54:29.474Z,79.70
2018-06-24T00:58:35.001Z,79.90
2018-06-24T01:02:39.237Z,80.60
2018-06-24T01:06:43.773Z,80.10
2018-06-24T01:10:48.158Z,79.80
2018-06-24T01:14:51.735Z,80.00
2018-06-24T01:18:57.538Z,79.60
2018-06-24T01:23:01.086Z,79.90
2018-06-24T01:27:04.908Z,80.20
2018-06-24T01:31:08.466Z,80.60
2018-06-24T01:35:30.487Z,80.90
2018-06-24T01:39:34.031Z,80.30
2018-06-24T01:43:37.551Z,80.60
2018-06-24T01:47:59.749Z,80.40
2018-06-24T01:52:03.832Z,81.00
2018-06-24T01:56:08.483Z,79.20
2018-06-24T02:00:12.083Z,79.20
2018-06-24T02:04:15.925Z,79.00
2018-06-24T02:08:19.578Z,79.70
2018-06-24T02:12:23.795Z,79.60
2018-06-24T02:16:27.545Z,79.60
2018-06-24T02:20:31.176Z,79.90
2018-06-24T02:24:35.542Z,79.80
2018-06-24T02:28:39.139Z,80.00
2018-06-24T02:32:50.240Z,80.20
2018-06-24T02:36:53.785Z,79.90
2018-06-24T02:40:58.441Z,80.40
2018-06-24T02:45:02.097Z,80.30
2018-06-24T02:49:05.846Z,79.80
2018-06-24T02:53:09.572Z,80.20
2018-06-24T02:57:13.640Z,80.00
2018-06-24T03:01:18.581Z,80.30
2018-06-24T03:05:22.848Z,80.40
2018-06-24T03:09:26.983Z,80.90
2018-06-24T03:13:30.642Z,80.90
2018-06-24T03:17:34.152Z,80.80
2018-06-24T03:21:37.749Z,81.00
2018-06-24T03:25:41.227Z,81.00
2018-06-24T03:29:45.100Z,81.00
2018-06-24T03:33:48.654Z,81.10
2018-06-24T03:37:52.187Z,81.10
2018-06-24T03:41:55.802Z,81.00
2018-06-24T03:46:09.339Z,81.20
2018-06-24T03:50:13.025Z,81.30
2018-06-24T03:54:18.747Z,81.20
2018-06-24T03:58:22.344Z,81.30
2018-06-24T04:02:29.271Z,81.10
2018-06-24T04:06:32.822Z,80.90
2018-06-24T04:10:44.188Z,81.30
2018-06-24T04:14:48.637Z,81.40
2018-06-24T04:18:52.194Z,81.80
2018-06-24T04:22:55.788Z,82.10
2018-06-24T04:26:59.756Z,82.20
2018-06-24T04:31:03.330Z,82.10
2018-06-24T04:35:06.902Z,81.80
2018-06-24T04:39:11.259Z,81.70
2018-06-24T04:43:15.194Z,82.00
2018-06-24T04:47:18.807Z,82.50
2018-06-24T04:51:24.892Z,82.40
2018-06-24T04:55:28.535Z,81.60
2018-06-24T04:59:33.234Z,82.40
2018-06-24T05:03:36.928Z,82.40
2018-06-24T05:07:41.078Z,82.40
2018-06-24T05:11:44.623Z,82.30
2018-06-24T05:15:48.553Z,82.60
2018-06-24T05:19:52.038Z,82.80
2018-06-24T05:24:08.442Z,82.50
2018-06-24T05:28:11.966Z,81.80
2018-06-24T05:32:15.897Z,82.40
2018-06-24T05:36:19.620Z,81.60
2018-06-24T05:40:23.666Z,81.60
2018-06-24T05:44:27.275Z,81.70
2018-06-24T05:48:31.173Z,80.00
2018-06-24T05:52:38.217Z,79.60
2018-06-24T05:56:42.477Z,79.10
2018-06-24T06:04:51.572Z,77.60
2018-06-24T06:08:55.192Z,75.40
2018-06-24T06:12:58.915Z,74.80
2018-06-24T06:17:02.668Z,73.80
2018-06-24T06:21:06.682Z,73.30
2018-06-24T06:25:10.884Z,72.80
2018-06-24T06:29:14.556Z,71.40
2018-06-24T06:33:18.403Z,71.90
2018-06-24T06:37:22.343Z,70.70
2018-06-24T06:41:26.050Z,70.20
2018-06-24T06:45:30.090Z,70.90
2018-06-24T06:49:33.418Z,71.30
2018-06-24T06:53:39.185Z,71.70
2018-06-24T06:57:43.070Z,70.40
2018-06-24T07:01:52.076Z,68.30
2018-06-24T07:06:01.275Z,64.10
2018-06-24T07:10:04.953Z,61.60
2018-06-24T07:14:11.922Z,61.60
2018-06-24T07:18:15.477Z,62.90
2018-06-24T07:22:26.289Z,62.40
2018-06-24T07:30:33.178Z,58.50
2018-06-24T07:34:36.782Z,59.40
2018-06-24T07:38:40.437Z,60.20
2018-06-24T07:42:44.462Z,62.20
2018-06-24T07:46:48.002Z,62.60
2018-06-24T07:50:51.564Z,61.20
2018-06-24T07:54:57.433Z,61.20
2018-06-24T07:59:13.084Z,62.40
2018-06-24T08:03:17.780Z,60.40
2018-06-24T08:07:27.390Z,63.40
2018-06-24T08:11:30.997Z,63.30
2018-06-24T08:15:41.990Z,63.90
2018-06-24T08:19:47.318Z,61.70
2018-06-24T08:23:50.882Z,62.90
2018-06-24T08:27:54.557Z,64.30
2018-06-24T08:31:58.394Z,61.80
2018-06-24T08:36:03.084Z,63.80
2018-06-24T08:40:12.894Z,63.00
2018-06-24T08:44:16.570Z,62.20
2018-06-24T08:48:31.668Z,62.40
2018-06-24T08:52:35.712Z,60.60
2018-06-24T09:00:46.737Z,63.80
2018-06-24T09:04:51.627Z,61.90
2018-06-24T09:08:55.438Z,61.70
2018-06-24T09:12:59.321Z,59.70
2018-06-24T09:17:03.071Z,58.20
2018-06-24T09:21:07.801Z,57.60
2018-06-24T09:25:11.520Z,57.20
2018-06-24T09:29:17.662Z,56.80
2018-06-24T09:33:21.279Z,56.60
2018-06-24T09:37:27.090Z,55.80
2018-06-24T09:41:30.766Z,57.60
2018-06-24T09:45:34.420Z,57.90
2018-06-24T09:49:48.362Z,54.80
2018-06-24T09:53:52.346Z,56.40
2018-06-24T09:57:56.100Z,60.70
2018-06-24T10:02:04.596Z,60.90
2018-06-24T10:06:08.636Z,60.20
2018-06-24T10:10:16.399Z,59.00
2018-06-24T10:14:20.099Z,59.70
2018-06-24T10:18:26.284Z,60.60
2018-06-24T10:22:34.892Z,60.90
2018-06-24T10:26:39.506Z,61.00
2018-06-24T10:30:43.090Z,59.00
2018-06-24T10:34:48.717Z,60.90
2018-06-24T10:38:54.973Z,59.90
2018-06-24T10:43:04.167Z,59.50
2018-06-24T10:47:07.715Z,60.50
2018-06-24T10:51:16.428Z,57.90
2018-06-24T10:55:20.004Z,60.00
2018-06-24T10:59:23.831Z,59.80
2018-06-24T11:03:39.662Z,57.40
2018-06-24T11:07:45.357Z,57.90
2018-06-24T11:11:51.045Z,56.00
2018-06-24T11:15:57.078Z,58.80
2018-06-24T11:20:00.708Z,59.00
2018-06-24T11:24:06.218Z,59.70
2018-06-24T11:28:10.279Z,60.40
2018-06-24T11:32:14.627Z,58.40
2018-06-24T11:36:22.942Z,59.20
2018-06-24T11:40:27.387Z,60.50
2018-06-24T11:44:33.324Z,57.40
2018-06-24T11:48:37.599Z,58.90
2018-06-24T11:52:44.106Z,58.30
2018-06-24T11:56:48.168Z,56.70
2018-06-24T12:00:52.093Z,57.90
2018-06-24T12:04:58.063Z,58.80
2018-06-24T12:09:03.595Z,60.20
2018-06-24T12:13:07.793Z,62.30
2018-06-24T12:17:12.515Z,62.00
2018-06-24T12:21:17.887Z,59.40
2018-06-24T12:25:23.398Z,57.10
2018-06-24T12:29:27.840Z,59.10
2018-06-24T12:33:32.790Z,59.30
2018-06-24T12:41:45.965Z,60.90
2018-06-24T12:45:50.050Z,60.80
2018-06-24T12:49:54.981Z,57.40
2018-06-24T12:54:00.177Z,60.70
2018-06-24T12:58:04.622Z,60.10
2018-06-24T13:02:08.599Z,56.90
2018-06-24T13:06:13.648Z,61.20
2018-06-24T13:10:17.906Z,58.30
2018-06-24T13:14:22.145Z,59.20
2018-06-24T13:18:28.991Z,58.60
2018-06-24T13:22:32.974Z,59.10
2018-06-24T13:26:36.967Z,58.20
2018-06-24T13:30:40.930Z,57.60
2018-06-24T13:34:46.903Z,58.50
2018-06-24T13:38:51.048Z,56.30
2018-06-24T13:42:56.818Z,55.80
2018-06-24T13:47:01.110Z,59.90
2018-06-24T13:51:10.856Z,60.00
2018-06-24T13:55:14.878Z,59.20
2018-06-24T13:59:22.701Z,59.20
2018-06-24T14:03:31.341Z,60.70
2018-06-24T14:07:36.050Z,62.20
2018-06-24T14:11:42.105Z,60.20
2018-06-24T14:15:47.665Z,61.70
2018-06-24T14:19:52.354Z,62.20
2018-06-24T14:23:56.754Z,61.80
2018-06-24T14:28:00.786Z,62.70
2018-06-24T14:32:08.640Z,62.80
2018-06-24T14:36:14.347Z,62.90
2018-06-24T14:40:18.650Z,62.20
2018-06-24T14:44:22.232Z,64.40
2018-06-24T14:48:25.943Z,62.30
2018-06-24T14:52:29.531Z,62.70
2018-06-24T14:56:36.881Z,63.40
2018-06-24T15:00:46.270Z,64.10
2018-06-24T15:04:49.876Z,64.60
2018-06-24T15:08:59.924Z,66.20
2018-06-24T15:13:20.443Z,65.70
2018-06-24T15:17:24.031Z,65.50
2018-06-24T15:21:28.799Z,62.70
2018-06-24T15:25:39.474Z,62.00
2018-06-24T15:29:43.421Z,62.10
2018-06-24T15:33:47.099Z,62.70
2018-06-24T15:37:56.640Z,64.50
2018-06-24T15:42:00.370Z,60.80
2018-06-24T15:46:04.792Z,62.80
2018-06-24T15:50:08.568Z,58.80
2018-06-24T15:54:12.638Z,59.20
2018-06-24T15:58:16.422Z,60.80
2018-06-24T16:02:20.139Z,63.40
2018-06-24T16:06:35.971Z,62.20
2018-06-24T16:10:47.644Z,63.30
2018-06-24T16:14:52.652Z,62.10
2018-06-24T16:18:58.338Z,64.50
2018-06-24T16:23:02.113Z,62.10
2018-06-24T16:31:26.836Z,64.00
2018-06-24T16:35:34.215Z,65.20
2018-06-24T16:39:37.757Z,65.70
2018-06-24T16:43:41.558Z,64.20
2018-06-24T16:47:45.206Z,62.90
2018-06-24T16:51:49.068Z,63.70
2018-06-24T16:55:52.771Z,64.50
2018-06-24T17:04:00.887Z,65.60
2018-06-24T17:08:08.807Z,64.50
2018-06-24T17:12:12.802Z,66.70
2018-06-24T17:16:16.426Z,64.80
2018-06-24T17:20:20.022Z,62.60
2018-06-24T17:24:23.613Z,63.30
2018-06-24T17:28:27.373Z,63.50
2018-06-24T17:32:31.612Z,65.60
2018-06-24T17:36:39.218Z,63.70
2018-06-24T17:40:43.088Z,66.90
2018-06-24T17:44:46.647Z,66.40
2018-06-24T17:48:50.355Z,66.20
2018-06-24T17:52:57.876Z,64.10
2018-06-24T17:57:02.476Z,66.80
2018-06-24T18:01:12.143Z,67.70
2018-06-24T18:05:15.775Z,68.40
2018-06-24T18:09:19.333Z,67.30
2018-06-24T18:17:27.206Z,67.10
2018-06-24T18:21:31.193Z,66.40
2018-06-24T18:25:34.819Z,67.40
2018-06-24T18:29:38.366Z,66.70
2018-06-24T18:33:46.051Z,67.80
2018-06-24T18:37:51.103Z,66.10
2018-06-24T18:46:04.993Z,67.20
2018-06-24T18:50:08.562Z,68.00
2018-06-24T18:54:14.668Z,68.40
2018-06-24T18:58:20.897Z,68.70
2018-06-24T19:02:27.926Z,68.60
2018-06-24T19:06:37.524Z,67.50
2018-06-24T19:10:45.089Z,68.60
2018-06-24T19:18:58.457Z,69.20
2018-06-24T19:23:03.808Z,69.10
2018-06-24T19:27:07.589Z,68.50
2018-06-24T19:31:11.297Z,69.70
2018-06-24T19:35:17.760Z,67.60
2018-06-24T19:39:21.583Z,67.70
2018-06-24T19:43:25.312Z,68.20
2018-06-24T19:47:29.059Z,69.10
2018-06-24T19:51:33.032Z,69.20
2018-06-24T19:55:36.704Z,70.20
2018-06-24T19:59:40.644Z,70.50
2018-06-24T20:03:46.123Z,70.80
2018-06-24T20:07:49.987Z,69.90
2018-06-24T20:11:53.808Z,70.10
2018-06-24T20:15:57.999Z,68.00
2018-06-24T20:20:01.851Z,69.30
2018-06-24T20:24:05.921Z,67.70
2018-06-24T20:28:09.488Z,68.10
2018-06-24T20:36:17.467Z,69.70
2018-06-24T20:40:22.032Z,69.60
2018-06-24T20:44:25.779Z,72.20
2018-06-24T20:48:30.317Z,71.70
2018-06-24T20:52:41.129Z,70.20
2018-06-24T20:56:44.951Z,71.80
2018-06-24T21:00:48.638Z,72.20
2018-06-24T21:04:52.463Z,70.90
2018-06-24T21:09:07.675Z,71.80
2018-06-24T21:13:11.713Z,71.50
2018-06-24T21:17:15.428Z,70.10
2018-06-24T21:21:19.150Z,71.80
2018-06-24T21:25:22.723Z,72.30
2018-06-24T21:29:26.530Z,72.50
2018-06-24T21:33:31.136Z,71.60
2018-06-24T21:37:34.715Z,72.00
2018-06-24T21:41:38.294Z,72.00
2018-06-24T21:45:41.870Z,73.10
2018-06-24T21:49:45.400Z,73.20
2018-06-24T21:53:50.018Z,72.90
2018-06-24T21:57:53.586Z,72.30
2018-06-24T22:01:57.288Z,73.10
2018-06-24T22:06:00.939Z,73.00
2018-06-24T22:10:05.335Z,72.40
2018-06-24T22:14:10.918Z,72.90
2018-06-24T22:18:14.542Z,73.20
2018-06-24T22:22:19.226Z,74.20
2018-06-24T22:26:22.806Z,73.30
2018-06-24T22:30:27.606Z,73.50
2018-06-24T22:34:31.343Z,73.90
2018-06-24T22:38:40.361Z,74.20
2018-06-24T22:42:43.954Z,75.20
2018-06-24T22:46:48.571Z,74.40
2018-06-24T22:50:52.123Z,74.10
2018-06-24T22:54:55.716Z,74.30
2018-06-24T22:59:14.727Z,75.10
2018-06-24T23:03:18.355Z,74.50
2018-06-24T23:07:21.966Z,74.90
2018-06-24T23:11:25.503Z,74.30
2018-06-24T23:15:32.602Z,75.10
2018-06-24T23:19:36.364Z,75.40
2018-06-24T23:23:40.940Z,75.80
2018-06-24T23:27:48.546Z,75.70
2018-06-24T23:31:52.380Z,76.10
2018-06-24T23:35:59.671Z,76.60
2018-06-24T23:40:03.502Z,76.80
2018-06-24T23:44:07.049Z,75.80
2018-06-24T23:48:10.655Z,76.10
2018-06-24T23:52:14.182Z,76.20
2018-06-24T23:56:18.117Z,76.20
